Latest Coastal Weather Observations for Cape Naturaliste

IDW60701

Issued at 5:43 pm WST Saturday 25 March 2017 (issued every 10 minutes, with the page automatically refreshed every 10 minutes)

About coastal observations | Map of coastal stations | Coastal observations for WA | Marine services | Other Formats
Station Details ID: 009519 Name: CAPE NATURALISTE Lat: -33.54 Lon: 115.02 Height: 109.0 m
Data from the previous 72 hours. | See also: Recent months at Cape Naturaliste
Date/Time
WST
Temp
°C
Wind Pressure Rain since
9am
mm
Weather Cloud Vis
km
Sea
Height
m
Swell
Dir  Spd
kts
Gust
kts
hPa Trend Height
m
Period
s
Dir
25/05:30pm 19.1 WSW 12 17 1008.5 - 0.0 - - - - - - -
25/05:00pm 19.7 NNW 7 8 1008.4 - 0.0 - - - - - - -
25/04:30pm 20.7 NNW 7 10 1008.4 - 0.0 - - - - - - -
25/04:00pm 21.4 NNW 7 9 1008.5 - 0.0 - - - - - - -
25/03:30pm 21.3 NW 7 10 1008.9 - 0.0 - - - - - - -
25/03:00pm 22.6 WNW 7 10 1008.8 - 0.0 - - - - - - -
25/02:30pm 22.2 NNW 7 9 1009.1 - 0.0 - - - - - - -
25/02:00pm 22.9 W 6 9 1009.3 - 0.0 - - - - - - -
25/01:30pm 22.3 WSW 6 8 1009.8 - 0.0 - - - - - - -
25/01:00pm 22.4 W 6 8 1010.6 - 0.0 - - - - - - -
25/12:30pm 22.8 W 7 10 1011.1 - 0.0 - - - - - - -
25/12:00pm 22.4 NNW 5 8 1011.6 - 0.0 - - - - - - -
25/11:30am 21.9 N 6 8 1011.9 - 0.0 - - - - - - -
25/11:00am 19.8 SW 4 6 1012.3 - 0.0 - - - - - - -
25/10:30am 18.0 SW 6 8 1012.9 - 0.0 - - - - - - -
25/10:00am 17.7 N 5 6 1013.1 - 0.0 - - - - - - -
25/09:30am 16.9 NE 5 6 1013.3 - 0.0 - - - - - - -
25/09:00am 16.6 ENE 7 10 1013.2 - 0.0 - - - - - - -
25/08:30am 16.0 ESE 5 7 1012.8 - 0.0 - - - - - - -
25/08:00am 15.5 SE 5 7 1013.0 - 0.0 - - - - - - -
25/07:30am 15.0 SSE 5 6 1013.4 - 0.0 - - - - - - -
25/07:00am 14.6 SSE 5 7 1013.5 - 0.0 - - - - - - -
25/06:30am 14.4 SSE 5 6 1013.6 - 0.0 - - - - - - -
25/06:00am 14.3 SSE 5 8 1013.5 - 0.0 - - - - - - -
25/05:30am 14.3 SSE 7 9 1013.5 - 0.0 - - - - - - -
25/05:00am 14.1 SSE 7 11 1013.5 - 0.0 - - - - - - -
25/04:30am 13.9 SE 9 12 1013.3 - 0.0 - - - - - - -
25/04:00am 14.0 SE 10 14 1013.3 - 0.0 - - - - - - -
25/03:30am 14.0 SE 10 14 1013.4 - 0.0 - - - - - - -
25/03:00am 14.1 SE 10 14 1013.7 - 0.0 - - - - - - -
25/02:30am 13.8 SSE 9 13 1013.9 - 0.0 - - - - - - -
25/02:00am 14.0 SE 11 15 1013.8 - 0.0 - - - - - - -
25/01:30am 14.0 SSE 10 14 1014.0 - 0.0 - - - - - - -
25/01:00am 14.1 SE 11 17 1013.9 - 0.0 - - - - - - -
25/12:30am 14.1 SE 12 18 1014.0 - 0.0 - - - - - - -
25/12:00am 14.1 SE 11 17 1014.5 - 0.0 - - - - - - -
 
Date/Time
WST
Temp
°C
Wind Pressure Rain since
9am
mm
Weather Cloud Vis
km
Sea
Height
m
Swell
Dir  Spd
kts
Gust
kts
hPa Trend Height
m
Period
s
Dir
24/11:30pm 14.2 SE 12 16 1014.8 - 0.0 - - - - - - -
24/11:00pm 14.4 SE 11 17 1015.0 - 0.0 - - - - - - -
24/10:30pm 14.6 SSE 9 16 1015.2 - 0.0 - - - - - - -
24/10:00pm 14.9 SE 15 22 1015.1 - 0.0 - - - - - - -
24/09:30pm 15.1 SSE 15 20 1015.1 - 0.0 - - - - - - -
24/09:00pm 15.1 SSE 12 17 1015.2 - 0.0 - - - - - - -
24/08:30pm 15.1 S 12 16 1015.4 - 0.0 - - - - - - -
24/08:00pm 15.3 S 13 18 1015.1 - 0.0 - - - - - - -
24/07:30pm 15.6 S 13 17 1015.0 - 0.0 - - - - - - -
24/07:00pm 16.1 S 11 16 1015.1 - 0.0 - - - - - - -
24/06:30pm 17.0 S 11 16 1015.1 - 0.0 - - - - - - -
24/06:00pm 18.1 S 13 19 1014.8 - 0.0 - - - - - - -
24/05:30pm 19.5 S 12 18 1014.7 - 0.0 - - - - - - -
24/05:00pm 20.5 S 13 18 1014.7 - 0.0 - - - - - - -
24/04:30pm 21.0 SSE 11 16 1014.8 - 0.0 - - - - - - -
24/04:00pm 21.2 SSE 12 16 1014.6 - 0.0 - - - - - - -
24/03:30pm 22.8 SSE 12 19 1014.8 - 0.0 - - - - - - -
24/03:00pm 22.1 S 10 16 1014.7 - 0.0 - - - - - - -
24/02:30pm 22.3 S 9 13 1015.0 - 0.0 - - - - - - -
24/02:00pm 22.1 SSW 12 17 1015.2 - 0.0 - - - - - - -
24/01:30pm 22.1 SSE 9 13 1015.6 - 0.0 - - - - - - -
24/01:00pm 21.5 SSE 9 12 1016.0 - 0.0 - - - - - - -
24/12:30pm 20.3 SSE 11 15 1016.6 - 0.0 - - - - - - -
24/12:00pm 20.2 SE 9 14 1017.1 - 0.0 - - - - - - -
24/11:30am 22.0 SSE 8 11 1017.4 - 0.0 - - - - - - -
24/11:00am 21.1 SSE 9 13 1017.6 - 0.0 - - - - - - -
24/10:30am 20.7 SE 9 14 1017.6 - 0.0 - - - - - - -
24/10:00am 19.8 SSE 8 13 1017.5 - 0.0 - - - - - - -
24/09:30am 19.5 S 9 14 1017.2 - 0.0 - - - - - - -
24/09:00am 20.2 SE 9 12 1016.8 - 1.6 - - - - - - -
24/08:30am 18.8 SSE 9 17 1016.4 - 1.6 - - - - - - -
24/08:00am 17.7 SSE 9 14 1016.4 - 1.6 - - - - - - -
24/07:30am 16.1 SSE 9 12 1016.3 - 1.4 - - - - - - -
24/07:00am 15.1 SSE 10 13 1016.0 - 1.4 - - - - - - -
24/06:30am 14.5 SSE 10 12 1015.9 - 1.4 - - - - - - -
24/06:00am 14.7 SSE 11 14 1015.6 - 1.4 - - - - - - -
24/05:30am 14.6 S 10 13 1015.5 - 1.4 - - - - - - -
24/05:00am 14.7 SSE 10 12 1015.2 - 1.4 - - - - - - -
24/04:30am 14.5 S 10 12 1015.0 - 1.4 - - - - - - -
24/04:00am 14.3 S 9 11 1014.7 - 1.4 - - - - - - -
24/03:30am 14.6 S 9 12 1014.7 - 1.4 - - - - - - -
24/03:00am 14.7 S 7 11 1014.7 - 1.4 - - - - - - -
24/02:30am 15.1 S 8 11 1014.9 - 1.4 - - - - - - -
24/02:00am 15.5 S 8 11 1014.9 - 1.4 - - - - - - -
24/01:30am 15.8 SSE 9 12 1015.1 - 1.4 - - - - - - -
24/01:00am 15.9 SSE 8 11 1015.1 - 1.4 - - - - - - -
24/12:30am 15.9 SSE 10 13 1015.1 - 1.4 - - - - - - -
24/12:00am 16.1 SSE 8 10 1015.0 - 1.4 - - - - - - -
 
Date/Time
WST
Temp
°C
Wind Pressure Rain since
9am
mm
Weather Cloud Vis
km
Sea
Height
m
Swell
Dir  Spd
kts
Gust
kts
hPa Trend Height
m
Period
s
Dir
23/11:30pm 16.1 S 8 10 1015.1 - 1.4 - - - - - - -
23/11:00pm 16.2 SSE 9 13 1014.9 - 1.4 - - - - - - -
23/10:30pm 16.2 S 13 16 1015.1 - 1.4 - - - - - - -
23/10:00pm 16.2 S 11 16 1015.3 - 1.4 - - - - - - -
23/09:30pm 16.1 S 11 15 1015.2 - 1.4 - - - - - - -
23/09:00pm 16.2 S 13 17 1015.1 - 1.4 - - - - - - -
23/08:30pm 16.5 S 14 17 1014.9 - 1.4 - - - - - - -
23/08:00pm 16.6 S 15 21 1014.7 - 1.4 - - - - - - -
23/07:30pm 16.9 S 16 23 1014.4 - 0.8 - - - - - - -
23/07:00pm 17.1 SSW 19 25 1013.9 - 0.6 - - - - - - -
23/06:30pm 17.2 S 18 24 1013.7 - 0.4 - - - - - - -
23/06:10pm 17.1 SSW 17 27 1013.5 - 0.4 - - - - - - -
23/06:00pm 17.3 SSW 16 24 1013.4 - 0.4 - - - - - - -
23/05:32pm 17.3 SSW 17 27 1013.2 - 0.4 - - - - - - -
23/05:30pm 17.2 SSW 17 23 1013.2 - 0.4 - - - - - - -
23/05:00pm 18.4 SSW 18 24 1013.2 - 0.4 - - - - - - -
23/04:30pm 18.7 SSW 19 28 1012.9 - 0.4 - - - - - - -
23/04:13pm 19.3 SSW 18 28 1012.8 - 0.4 - - - - - - -
23/04:00pm 19.2 SSW 19 27 1012.8 - 0.4 - - - - - - -
23/03:30pm 17.9 SSW 21 32 1012.5 - 0.4 - - - - - - -
23/03:15pm 18.6 SSW 18 28 1012.4 - 0.4 - - - - - - -
23/03:00pm 18.4 SSW 19 26 1012.3 - 0.4 - - - - - - -
23/02:42pm 18.6 SSW 19 29 1012.1 - 0.4 - - - - - - -
23/02:30pm 18.6 SSW 19 26 1012.2 - 0.4 - - - - - - -
23/02:00pm 19.2 SSW 19 25 1012.3 - 0.4 - - - - - - -
23/01:41pm 20.1 SSW 19 29 1012.3 - 0.4 - - - - - - -
23/01:30pm 19.9 SSW 19 26 1012.4 - 0.4 - - - - - - -
23/01:00pm 20.4 SSW 17 23 1012.4 - 0.4 - - - - - - -
23/12:30pm 19.0 SSW 17 26 1012.5 - 0.4 - - - - - - -
23/12:00pm 17.9 SSW 17 29 1012.8 - 0.4 Recent precip. - - - - - -
23/11:37am 19.7 SSW 18 29 1012.7 - 0.4 - - - - - - -
23/11:30am 18.6 SSW 17 25 1012.8 - 0.4 - - - - - - -
23/11:09am 20.7 SSW 17 28 1012.9 - 0.2 - - - - - - -
23/11:00am 19.2 SSW 17 25 1012.9 - 0.2 - - - - - - -
23/10:31am 18.3 SSW 16 27 1013.2 - 0.2 - - - - - - -
23/10:30am 18.4 SSW 16 23 1013.3 - 0.2 - - - - - - -
23/10:00am 18.6 SSW 18 29 1013.2 - 0.2 - - - - - - -
23/09:30am 17.5 SSW 19 27 1013.2 - 0.0 - - - - - - -
23/09:25am 18.1 SSW 17 27 1013.1 - 0.0 - - - - - - -
23/09:00am 18.3 SSW 19 27 1012.9 - 1.4 - - - - - - -
23/08:30am 18.4 SSW 17 25 1012.7 - 1.4 - - - - - - -
23/08:00am 17.7 SSW 18 26 1012.5 - 1.4 - - - - - - -
23/07:30am 17.5 SSW 19 27 1012.3 - 1.4 - - - - - - -
23/07:00am 17.1 SSW 19 25 1012.0 - 1.4 - - - - - - -
23/06:30am 17.1 SSW 17 23 1011.6 - 1.4 - - - - - - -
23/06:00am 16.5 SSW 18 25 1011.2 - 1.4 - - - - - - -
23/05:30am 16.7 SSW 17 25 1010.9 - 1.4 - - - - - - -
23/05:00am 15.8 SSW 21 30 1010.7 - 1.4 - - - - - - -
23/04:52am 16.4 SSW 19 30 1010.6 - 1.4 - - - - - - -
23/04:30am 16.6 SSW 19 28 1010.6 - 1.4 - - - - - - -
23/04:00am 16.4 SSW 20 26 1010.2 - 1.4 - - - - - - -
23/03:30am 16.1 SSW 21 28 1010.1 - 1.2 - - - - - - -
23/03:00am 16.6 SSW 18 25 1010.2 - 1.2 Recent precip. - - - - - -
23/02:30am 16.5 SSW 17 22 1010.2 - 1.2 - - - - - - -
23/02:02am 16.7 SSW 16 26 1010.3 - 0.2 - - - - - - -
23/02:00am 16.5 SSW 17 26 1010.3 - 0.2 - - - - - - -
23/01:37am 17.2 SSW 17 27 1010.1 - 0.0 - - - - - - -
23/01:30am 17.6 SSW 16 22 1010.2 - 0.0 - - - - - - -
23/01:00am 17.3 SSW 17 25 1010.0 - 0.0 - - - - - - -
23/12:30am 17.5 SSW 17 23 1010.0 - 0.0 - - - - - - -
23/12:00am 16.9 S 15 19 1010.0 - 0.0 - - - - - - -
 
Date/Time
WST
Temp
°C
Wind Pressure Rain since
9am
mm
Weather Cloud Vis
km
Sea
Height
m
Swell
Dir  Spd
kts
Gust
kts
hPa Trend Height
m
Period
s
Dir
22/11:30pm 16.8 S 14 21 1009.8 - 0.0 - - - - - - -
22/11:00pm 16.7 S 17 23 1009.6 - 0.0 - - - - - - -
22/10:43pm 17.1 S 15 25 1009.6 - 0.0 - - - - - - -
22/10:30pm 17.0 S 15 22 1009.6 - 0.0 - - - - - - -
22/10:00pm 17.2 SSW 19 27 1009.1 - 0.0 - - - - - - -
22/09:30pm 17.3 S 18 24 1009.0 - 0.0 - - - - - - -
22/09:00pm 17.4 S 18 24 1008.8 - 0.0 - - - - - - -
22/08:30pm 17.7 S 20 26 1008.7 - 0.0 - - - - - - -
22/08:20pm 17.9 S 17 27 1008.6 - 0.0 - - - - - - -
22/08:17pm 18.0 S 15 24 1008.6 - 0.0 - - - - - - -
22/08:00pm 18.1 SSW 10 13 1008.4 - 0.0 - - - - - - -
22/07:30pm 17.9 SSW 11 14 1007.8 - 0.0 - - - - - - -
22/07:00pm 17.9 SSW 11 14 1007.4 - 0.0 - - - - - - -
22/06:30pm 18.0 SSW 9 14 1007.1 - 0.0 - - - - - - -
22/06:00pm 18.9 SSW 12 15 1006.7 - 0.0 - - - - - - -

Other Formats:

Comma delimited format used in spreadsheet applications
http://www.bom.gov.au/fwo/IDW60701/IDW60701.94600.axf

JavaScript Object Notation format (JSON) in row-major order
http://www.bom.gov.au/fwo/IDW60701/IDW60701.94600.json